This is the latest recevied weather packets stored in our database for station/object KH2PM. If no packets are shown the sender has not sent any weather packets the latest 10 day(s).
| Time | Temp. | Humidity | Pressure | Rain* | Wind** | Luminosity | Snow |
|---|---|---|---|---|---|---|---|
| 1777443604 | 13.89° C | 93% | 1016.2 hPa | 0 mm | - | - | - |
| 1777443004 | 13.89° C | 93% | 1016.1 hPa | 0 mm | - | - | - |
| 1777441204 | 13.89° C | 92% | 1016.2 hPa | 0 mm | - | - | - |
| 1777439707 | 14.44° C | 91% | 1016.8 hPa | 0 mm | - | - | - |
| 1777439105 | 14.44° C | 92% | 1017 hPa | 0 mm | - | - | - |
| 1777438805 | 14.44° C | 91% | 1017.1 hPa | 0 mm | - | - | - |
| 1777438504 | 14.44° C | 91% | 1017.3 hPa | 0 mm | - | - | - |
| 1777438204 | 14.44° C | 91% | 1017.3 hPa | 0 mm | - | - | - |
| 1777437304 | 14.44° C | 91% | 1017.8 hPa | 0 mm | - | - | - |
| 1777435504 | 14.44° C | 90% | 1018.3 hPa | 0 mm | - | - | - |
| 1777434904 | 14.44° C | 91% | 1018.3 hPa | 0 mm | - | - | - |
| 1777434604 | 14.44° C | 91% | 1018.2 hPa | 0 mm | - | - | - |
| 1777432804 | 15° C | 90% | 1018.8 hPa | 0 mm | - | - | - |
| 1777424104 | 17.22° C | 82% | 1017.7 hPa | 0 mm | - | - | - |
| 1777422304 | 17.78° C | 78% | 1017.6 hPa | 0 mm | - | - | - |
| 1777421707 | 18.33° C | 77% | 1017.4 hPa | 0 mm | - | - | - |
| 1777421404 | 18.89° C | 75% | 1017.1 hPa | 0 mm | - | - | - |
| 1777419907 | 19.44° C | 74% | 1016.8 hPa | 0 mm | - | - | - |
| 1777416904 | 20.56° C | 70% | 1018 hPa | 0 mm | - | - | - |
| 1777413605 | 22.78° C | 61% | 1018.2 hPa | 0 mm | - | - | - |
| 1777413303 | 22.78° C | 62% | 1018.1 hPa | 0 mm | - | - | - |
| 1777412104 | 21.11° C | 65% | 1017.9 hPa | 0 mm | - | - | - |
| 1777408804 | 21.67° C | 63% | 1018.5 hPa | 0 mm | - | - | - |
| 1777406405 | 21.11° C | 64% | 1019 hPa | 0 mm | - | - | - |
| 1777406104 | 21.67° C | 64% | 1019.1 hPa | 0 mm | - | - | - |
* Rain latest hour (hover to see other rain measurements)
** Current wind speed in m/s (hover to see current wind gust speed)